Time;durP1;ratioP1;P1;durP2;ratioP2;P2;SDS_P1;SDS_P2;PMS_P1;PMS_P2;Temp;Humidity;BMP_temperature;BMP_pressure;BME280_temperature;BME280_humidity;BME280_pressure;Samples;Min_cycle;Max_cycle;Signal;HPM_P1;HPM_P2
2021/05/25 00:03:18;;;;;;;17.05;7.28;;;;;;;15.47;58.28;98727.16;263186;1104;114996;-65
2021/05/25 00:08:44;;;;;;;12.98;5.73;;;;;;;15.45;58.40;98720.22;263107;1099;114991;-67
2021/05/25 00:14:19;;;;;;;9.13;4.30;;;;;;;15.37;58.41;98710.16;262591;1105;115355;-67
2021/05/25 00:20:00;;;;;;;7.23;3.70;;;;;;;15.27;58.02;98704.75;263136;1100;114951;-65
2021/05/25 00:25:47;;;;;;;10.27;4.40;;;;;;;15.20;58.40;98724.19;262775;1104;115115;-66
2021/05/25 00:31:22;;;;;;;8.53;4.00;;;;;;;15.10;58.38;98726.80;262233;1105;114809;-64
2021/05/25 00:36:39;;;;;;;10.00;4.50;;;;;;;15.07;58.81;98735.95;262263;1102;114575;-66
2021/05/25 00:41:54;;;;;;;11.27;4.30;;;;;;;15.05;58.93;98737.08;262231;1106;114902;-65
2021/05/25 00:47:53;;;;;;;7.47;4.07;;;;;;;15.07;59.40;98725.23;262194;1101;115331;-66
2021/05/25 00:53:52;;;;;;;6.77;3.30;;;;;;;15.09;59.27;98743.88;262225;1105;114496;-67
2021/05/25 00:59:24;;;;;;;4.87;2.93;;;;;;;15.04;59.66;98738.89;262175;1101;114901;-66
2021/05/25 01:05:24;;;;;;;5.15;3.10;;;;;;;14.99;59.79;98713.48;263140;1104;114699;-65
2021/05/25 01:11:23;;;;;;;5.53;2.87;;;;;;;14.93;60.01;98700.59;262680;1099;114548;-67
2021/05/25 01:16:54;;;;;;;3.93;2.43;;;;;;;14.88;59.76;98688.45;262853;1104;114630;-67
2021/05/25 01:22:55;;;;;;;5.53;2.40;;;;;;;14.87;59.83;98694.77;263126;1099;118851;-65
2021/05/25 01:28:27;;;;;;;4.37;2.33;;;;;;;14.84;59.93;98662.91;263098;1100;115640;-66
2021/05/25 01:33:47;;;;;;;3.58;2.10;;;;;;;14.86;60.04;98639.49;262798;1104;114713;-66
2021/05/25 01:39:18;;;;;;;3.95;2.10;;;;;;;14.89;60.25;98635.71;263147;1099;114998;-65
2021/05/25 01:45:20;;;;;;;5.67;2.30;;;;;;;14.89;60.20;98622.31;263246;1102;114899;-67
2021/05/25 01:51:03;;;;;;;4.37;2.30;;;;;;;14.86;60.29;98615.38;263121;1099;114736;-66
2021/05/25 01:56:20;;;;;;;3.93;2.03;;;;;;;14.84;60.62;98622.72;263118;1103;115147;-66
2021/05/25 02:02:33;;;;;;;6.08;2.53;;;;;;;14.81;60.18;98683.72;263159;1099;115242;-63
2021/05/25 02:08:21;;;;;;;6.00;2.48;;;;;;;14.82;60.67;98688.13;263218;1101;114553;-65
2021/05/25 02:14:19;;;;;;;6.90;2.90;;;;;;;14.74;60.63;98774.50;262958;1104;114749;-65
2021/05/25 02:19:50;;;;;;;7.50;3.20;;;;;;;14.68;60.85;98681.26;263140;1100;114939;-63
2021/05/25 02:25:49;;;;;;;7.55;2.88;;;;;;;14.65;61.21;98674.33;263179;1103;114868;-66
2021/05/25 02:31:26;;;;;;;7.63;3.35;;;;;;;14.66;61.89;98709.98;262880;1099;114172;-67
2021/05/25 02:37:10;;;;;;;12.07;4.20;;;;;;;14.64;62.60;98712.81;263110;1104;115235;-66
2021/05/25 02:42:54;;;;;;;9.37;3.30;;;;;;;14.73;62.64;98672.83;263169;1099;115258;-67
2021/05/25 02:54:55;;;;;;;9.35;3.75;;;;;;;14.52;62.37;98654.07;263144;1099;114848;-67
2021/05/25 03:00:55;;;;;;;6.88;3.50;;;;;;;14.47;62.70;98710.66;263133;1099;115126;-65
2021/05/25 03:07:41;;;;;;;12.23;5.03;;;;;;;14.32;62.73;98825.20;263190;1103;114870;-67
2021/05/25 03:14:10;;;;;;;6.97;3.90;;;;;;;14.22;63.20;98810.86;263173;1099;115179;-66
2021/05/25 03:20:27;;;;;;;6.37;3.80;;;;;;;14.10;63.64;98790.45;263208;1104;114861;-66
2021/05/25 03:26:26;;;;;;;5.77;2.93;;;;;;;14.06;63.77;98764.89;263111;1098;114931;-67
2021/05/25 03:32:04;;;;;;;7.80;3.10;;;;;;;14.04;64.16;98769.54;262701;1100;114849;-67
2021/05/25 03:37:33;;;;;;;5.13;2.80;;;;;;;14.05;63.78;98777.42;263193;1104;115028;-67
2021/05/25 03:43:17;;;;;;;5.73;3.13;;;;;;;14.10;63.92;98761.02;262789;1099;114808;-67
2021/05/25 03:49:02;;;;;;;7.27;2.70;;;;;;;14.12;64.50;98751.87;262956;1104;114745;-66
2021/05/25 03:54:40;;;;;;;9.00;2.90;;;;;;;14.12;64.02;98746.52;263144;1104;114729;-66
2021/05/25 04:00:03;;;;;;;6.05;2.73;;;;;;;14.15;64.75;98732.89;262945;1104;114351;-65
2021/05/25 04:06:02;;;;;;;5.83;2.57;;;;;;;14.17;65.04;98728.28;262795;1100;115005;-65
2021/05/25 04:12:04;;;;;;;5.10;2.35;;;;;;;14.26;64.61;98715.95;263199;1104;114274;-67
2021/05/25 04:18:03;;;;;;;5.03;2.47;;;;;;;14.36;64.92;98699.98;263208;1099;117336;-67
2021/05/25 04:23:21;;;;;;;6.93;2.55;;;;;;;14.45;65.32;98677.80;263140;1099;115121;-67
2021/05/25 04:28:52;;;;;;;6.13;3.10;;;;;;;14.54;65.61;98689.62;263206;1098;114826;-67
2021/05/25 04:34:08;;;;;;;7.83;3.45;;;;;;;14.57;65.18;98700.92;262991;1100;114721;-65
2021/05/25 04:39:25;;;;;;;5.90;3.00;;;;;;;14.60;65.35;98711.34;262862;1102;114519;-64
2021/05/25 04:45:10;;;;;;;5.80;3.27;;;;;;;14.72;66.40;98708.63;263157;1100;114765;-66
2021/05/25 04:50:53;;;;;;;6.68;3.40;;;;;;;14.81;65.48;98708.71;263147;1104;114725;-66
2021/05/25 04:56:55;;;;;;;6.17;3.10;;;;;;;14.74;65.09;98709.34;263029;1099;114602;-66
2021/05/25 05:02:53;;;;;;;6.88;3.83;;;;;;;14.69;65.16;98714.25;263263;1104;114549;-65
2021/05/25 05:08:25;;;;;;;6.37;2.90;;;;;;;14.61;65.14;98712.22;263181;1099;115070;-67
2021/05/25 05:13:54;;;;;;;7.33;3.20;;;;;;;14.58;65.72;98721.35;263189;1104;114720;-67
2021/05/25 05:19:26;;;;;;;6.87;3.00;;;;;;;14.65;65.73;98725.22;263095;1100;114597;-66
2021/05/25 05:31:49;;;;;;;6.20;3.30;;;;;;;14.65;65.62;98743.13;263177;1102;114298;-67
2021/05/25 05:37:17;;;;;;;7.05;3.28;;;;;;;14.61;65.77;98730.97;263157;1100;114708;-66
2021/05/25 05:42:50;;;;;;;6.93;3.67;;;;;;;14.59;65.21;98746.30;263168;1104;114613;-66
2021/05/25 05:48:21;;;;;;;;;;;;;;;14.57;65.28;98726.82;262748;1100;114786;-66
2021/05/25 05:54:19;;;;;;;8.08;5.05;;;;;;;14.60;65.98;98710.50;263220;1104;101311;-66
2021/05/25 05:59:48;;;;;;;10.27;7.70;;;;;;;14.62;66.02;98713.91;262925;1100;114877;-65
2021/05/25 06:11:04;;;;;;;11.83;5.93;;;;;;;14.63;66.28;98721.80;262594;1100;115195;-65
2021/05/25 06:16:23;;;;;;;8.13;4.80;;;;;;;14.61;66.07;98733.64;263144;1104;115128;-65
2021/05/25 06:22:03;;;;;;;9.85;4.85;;;;;;;14.64;66.48;98730.72;262948;1100;114681;-65
2021/05/25 07:05:26;;;;;;;12.43;6.37;;;;;;;14.97;67.30;98702.03;263168;1104;114883;-66
2021/05/25 07:10:40;;;;;;;17.30;7.77;;;;;;;14.96;66.65;98693.14;263135;1100;114578;-65
2021/05/25 07:16:24;;;;;;;21.83;8.23;;;;;;;14.99;66.96;98706.28;263119;1104;114510;-68
2021/05/25 07:22:11;;;;;;;15.87;7.27;;;;;;;15.07;67.31;98706.47;263104;1099;114751;-67
2021/05/25 07:28:54;;;;;;;19.15;9.08;;;;;;;15.17;67.56;98692.28;263026;1102;114265;-68
2021/05/25 07:34:54;;;;;;;27.60;8.60;;;;;;;15.27;67.31;98703.91;263155;1099;114473;-66
2021/05/25 07:40:53;;;;;;;22.07;7.47;;;;;;;15.29;66.97;98718.04;263138;1102;115034;-68
2021/05/25 07:52:25;;;;;;;14.93;5.90;;;;;;;15.22;66.44;98724.92;262379;1100;114880;-68
2021/05/25 07:58:26;;;;;;;15.23;5.80;;;;;;;15.23;66.41;98732.81;263153;1104;114794;-68
2021/05/25 08:05:31;;;;;;;10.97;6.33;;;;;;;15.27;66.62;98736.08;263184;1097;114817;-67
2021/05/25 08:11:44;;;;;;;18.13;7.43;;;;;;;15.26;66.45;98745.11;262797;1104;114811;-67
2021/05/25 08:22:59;;;;;;;12.83;6.50;;;;;;;15.20;66.19;98753.67;263114;1098;114852;-67
2021/05/25 08:28:57;;;;;;;10.73;5.43;;;;;;;15.20;66.43;98745.63;263095;1103;114647;-67
2021/05/25 08:34:15;;;;;;;13.77;4.93;;;;;;;15.26;66.60;98751.31;263733;1098;102202;-68
